This is the latest recevied weather packets stored in our database for station/object SP5IZJ-2. If no packets are shown the sender has not sent any weather packets the latest 10 day(s).
| Time | Temp. | Humidity | Pressure | Rain* | Wind** | Luminosity | Snow |
|---|---|---|---|---|---|---|---|
| 1777779021 | 6.11° C | 74% | 1011 hPa | 0 mm | - | - | - |
| 1777778606 | 6.11° C | 73% | 1011.2 hPa | 0 mm | - | - | - |
| 1777777759 | 6.11° C | 72% | 1010.9 hPa | 0 mm | - | - | - |
| 1777777340 | 6.11° C | 72% | 1010.9 hPa | 0 mm | - | - | - |
| 1777775240 | 6.67° C | 69% | 1010.9 hPa | 0 mm | - | - | - |
| 1777774821 | 7.22° C | 69% | 1011 hPa | 0 mm | - | - | - |
| 1777773981 | 100° C | 100% | 0 hPa | 0 mm | - | - | - |
| 1777773561 | 7.78° C | 70% | 1011 hPa | 0 mm | - | - | - |
| 1777773144 | 7.22° C | 69% | 1011.3 hPa | 0 mm | - | - | - |
| 1777772306 | 7.22° C | 67% | 1011.2 hPa | 0 mm | - | - | - |
| 1777771882 | 7.22° C | 67% | 1011.2 hPa | 0 mm | - | - | - |
| 1777771042 | 7.78° C | 65% | 1011.1 hPa | 0 mm | - | - | - |
| 1777769783 | 7.78° C | 65% | 1011.3 hPa | 0 mm | - | - | - |
| 1777769363 | 7.78° C | 65% | 1011.3 hPa | 0 mm | - | - | - |
| 1777768523 | 7.78° C | 64% | 1011.2 hPa | 0 mm | - | - | - |
| 1777768106 | 8.33° C | 63% | 1011.2 hPa | 0 mm | - | - | - |
| 1777766844 | 7.78° C | 62% | 1011.3 hPa | 0 mm | - | - | - |
| 1777765584 | 7.78° C | 61% | 1011 hPa | 0 mm | - | - | - |
| 1777765165 | 8.33° C | 60% | 1011.1 hPa | 0 mm | - | - | - |
| 1777764329 | 8.33° C | 60% | 1011.3 hPa | 0 mm | - | - | - |
| 1777763905 | 8.33° C | 60% | 1011.3 hPa | 0 mm | - | - | - |
| 1777763065 | 8.89° C | 60% | 1011.2 hPa | 0 mm | - | - | - |
| 1777760129 | 9.44° C | 54% | 1011.4 hPa | 0 mm | - | - | - |
| 1777759287 | 10° C | 53% | 1011.5 hPa | 0 mm | - | - | - |
| 1777758030 | 10.56° C | 53% | 1011.4 hPa | 0 mm | - | - | - |
* Rain latest hour (hover to see other rain measurements)
** Current wind speed in m/s (hover to see current wind gust speed)